Time;durP1;ratioP1;P1;durP2;ratioP2;P2;SDS_P1;SDS_P2;PMS_P1;PMS_P2;Temp;Humidity;BMP_temperature;BMP_pressure;BME280_temperature;BME280_humidity;BME280_pressure;Samples;Min_cycle;Max_cycle;Signal;HPM_P1;HPM_P2
2021/06/26 00:00:51;;;;;;;66.82;17.10;;;15.80;95.50;;;;;;5057047;28;21176;-68
2021/06/26 00:03:18;;;;;;;42.45;16.13;;;15.80;95.60;;;;;;5065742;28;20048;-68
2021/06/26 00:05:44;;;;;;;118.35;16.63;;;15.80;95.80;;;;;;5061749;28;20052;-68
2021/06/26 00:08:09;;;;;;;86.55;16.30;;;15.80;95.70;;;;;;5067186;28;20549;-69
2021/06/26 00:10:35;;;;;;;69.32;14.80;;;15.70;95.70;;;;;;5065329;28;20024;-68
2021/06/26 00:13:00;;;;;;;85.20;15.45;;;15.70;95.80;;;;;;5069973;28;20449;-69
2021/06/26 00:15:26;;;;;;;50.75;14.02;;;15.70;95.80;;;;;;5070646;28;20024;-68
2021/06/26 00:17:52;;;;;;;42.35;13.40;;;15.70;95.90;;;;;;5063265;28;20025;-68
2021/06/26 00:20:17;;;;;;;30.85;14.45;;;15.70;96.00;;;;;;5068325;28;20029;-68
2021/06/26 00:22:43;;;;;;;59.67;14.55;;;15.70;96.10;;;;;;5068251;28;20037;-69
2021/06/26 00:25:09;;;;;;;25.60;14.07;;;15.70;96.00;;;;;;5063078;28;20028;-68
2021/06/26 00:27:35;;;;;;;20.88;13.70;;;15.70;96.00;;;;;;5065102;28;20067;-68
2021/06/26 00:30:01;;;;;;;25.20;13.90;;;15.70;96.10;;;;;;5065700;28;20075;-68
2021/06/26 00:32:26;;;;;;;33.15;13.77;;;15.70;96.10;;;;;;5066805;28;20417;-68
2021/06/26 00:34:52;;;;;;;23.05;14.15;;;15.70;96.10;;;;;;5066077;28;20463;-68
2021/06/26 00:37:17;;;;;;;61.28;14.32;;;15.70;96.10;;;;;;5064455;28;20020;-69
2021/06/26 00:39:43;;;;;;;20.77;13.38;;;15.70;96.10;;;;;;5066515;28;20032;-69
2021/06/26 00:42:09;;;;;;;26.23;12.98;;;15.70;96.00;;;;;;5065672;28;20047;-68
2021/06/26 00:44:34;;;;;;;27.98;14.27;;;15.70;96.10;;;;;;5065225;28;20037;-68
2021/06/26 00:47:11;;;;;;;29.88;14.27;;;15.70;96.00;;;;;;5064694;28;20935;-68
2021/06/26 00:49:36;;;;;;;23.42;14.10;;;15.60;96.10;;;;;;5061911;28;20398;-68
2021/06/26 00:52:03;;;;;;;54.95;14.02;;;15.60;96.10;;;;;;5069163;28;20025;-68
2021/06/26 00:54:28;;;;;;;27.05;13.38;;;15.60;96.10;;;;;;5059863;28;20043;-68
2021/06/26 00:56:55;;;;;;;27.35;12.10;;;15.50;96.10;;;;;;5061964;28;20029;-68
2021/06/26 00:59:20;;;;;;;19.85;13.93;;;15.40;96.20;;;;;;5067538;28;20025;-68
2021/06/26 01:01:46;;;;;;;29.23;12.35;;;15.40;96.20;;;;;;5066426;28;20031;-69
2021/06/26 01:04:11;;;;;;;42.35;14.88;;;15.40;96.30;;;;;;5064121;28;20476;-69
2021/06/26 01:06:37;;;;;;;21.13;12.75;;;15.40;96.10;;;;;;5060104;28;20040;-68
2021/06/26 01:09:03;;;;;;;25.73;13.40;;;15.30;96.10;;;;;;5065490;28;20021;-68
2021/06/26 01:11:29;;;;;;;16.80;12.63;;;15.20;96.10;;;;;;5064822;28;20568;-69
2021/06/26 01:13:56;;;;;;;25.13;13.88;;;15.20;96.30;;;;;;5062490;28;20021;-69
2021/06/26 01:16:24;;;;;;;23.20;13.57;;;15.20;96.40;;;;;;5067360;28;20051;-68
2021/06/26 01:18:50;;;;;;;25.00;14.45;;;15.20;96.40;;;;;;5061823;28;20104;-68
2021/06/26 01:21:16;;;;;;;25.40;14.25;;;15.20;96.50;;;;;;5062094;28;20132;-68
2021/06/26 01:23:46;;;;;;;27.40;15.20;;;15.10;96.40;;;;;;5068643;28;20463;-69
2021/06/26 01:26:13;;;;;;;22.17;13.35;;;15.10;96.40;;;;;;5064414;28;20039;-70
2021/06/26 01:28:39;;;;;;;22.73;13.52;;;15.10;96.50;;;;;;5064285;28;20771;-68
2021/06/26 01:31:05;;;;;;;18.55;12.57;;;15.10;96.50;;;;;;5067648;28;20028;-68
2021/06/26 01:33:31;;;;;;;28.38;12.63;;;15.10;96.50;;;;;;5062132;28;20074;-68
2021/06/26 01:35:56;;;;;;;26.95;12.63;;;15.10;96.50;;;;;;5060876;28;20469;-68
2021/06/26 01:38:22;;;;;;;38.97;13.32;;;15.10;96.60;;;;;;5058080;28;20439;-68
2021/06/26 01:40:48;;;;;;;36.22;13.20;;;15.00;96.60;;;;;;5064045;28;20040;-67
2021/06/26 01:43:13;;;;;;;36.67;10.38;;;15.00;96.60;;;;;;5067770;28;20579;-69
2021/06/26 01:45:39;;;;;;;18.08;11.18;;;14.90;96.60;;;;;;5064113;28;20077;-68
2021/06/26 01:48:05;;;;;;;36.13;11.48;;;14.90;96.70;;;;;;5064013;28;20085;-68
2021/06/26 01:50:31;;;;;;;47.65;11.00;;;14.80;96.70;;;;;;5065108;28;20025;-67
2021/06/26 01:52:57;;;;;;;27.88;11.23;;;14.80;96.70;;;;;;5067989;28;20031;-68
2021/06/26 01:55:24;;;;;;;20.02;10.27;;;14.80;96.80;;;;;;5068215;28;20050;-69
2021/06/26 01:57:51;;;;;;;17.85;9.40;;;14.70;96.80;;;;;;5068622;28;20031;-68
2021/06/26 02:00:19;;;;;;;35.65;11.20;;;14.80;96.90;;;;;;5066052;28;20051;-68
2021/06/26 02:02:44;;;;;;;34.53;11.40;;;14.80;96.80;;;;;;5067738;28;20028;-68
2021/06/26 02:05:12;;;;;;;25.27;10.88;;;14.70;96.80;;;;;;5065975;28;20040;-68
2021/06/26 02:07:37;;;;;;;23.23;9.93;;;14.70;96.80;;;;;;5070299;28;20040;-69
2021/06/26 02:10:04;;;;;;;20.50;10.05;;;14.60;96.70;;;;;;5067828;28;20032;-69
2021/06/26 02:12:30;;;;;;;19.00;10.45;;;14.50;96.80;;;;;;5071120;28;20144;-67
2021/06/26 02:14:56;;;;;;;20.27;10.68;;;14.50;96.80;;;;;;5067676;28;20060;-68
2021/06/26 02:17:21;;;;;;;24.70;12.50;;;14.50;96.90;;;;;;5071055;28;20044;-68
2021/06/26 02:19:48;;;;;;;45.20;12.30;;;14.40;96.90;;;;;;5068816;28;20428;-68
2021/06/26 02:22:14;;;;;;;25.33;12.25;;;14.40;96.90;;;;;;5058131;28;20082;-69
2021/06/26 02:24:40;;;;;;;21.00;13.10;;;14.40;97.00;;;;;;5068670;28;20074;-68
2021/06/26 02:27:06;;;;;;;29.25;12.27;;;14.40;97.00;;;;;;5064465;28;21790;-69
2021/06/26 02:29:32;;;;;;;20.63;12.20;;;14.40;97.10;;;;;;5066013;28;20028;-68
2021/06/26 02:31:57;;;;;;;21.50;11.18;;;14.40;97.20;;;;;;5068400;28;20029;-68
2021/06/26 02:34:23;;;;;;;21.23;12.00;;;14.40;97.20;;;;;;5068371;28;20020;-67
2021/06/26 02:36:49;;;;;;;22.15;11.40;;;14.50;97.20;;;;;;5058528;28;20028;-68
2021/06/26 02:39:14;;;;;;;19.15;12.02;;;14.50;97.20;;;;;;5066549;28;20036;-68
2021/06/26 02:41:40;;;;;;;30.85;11.55;;;14.50;97.20;;;;;;5070174;28;20028;-68
2021/06/26 02:44:06;;;;;;;19.83;12.90;;;14.50;97.10;;;;;;5066777;28;20029;-68
2021/06/26 02:46:32;;;;;;;16.00;11.75;;;14.50;97.10;;;;;;5057629;28;20021;-68
2021/06/26 02:48:58;;;;;;;19.02;12.18;;;14.50;97.20;;;;;;5068935;28;20032;-68
2021/06/26 02:51:23;;;;;;;18.98;11.23;;;14.40;97.20;;;;;;5064663;28;20035;-68
2021/06/26 02:53:49;;;;;;;34.63;11.77;;;14.40;97.20;;;;;;5064632;28;20029;-68
2021/06/26 02:56:15;;;;;;;24.95;12.32;;;14.40;97.20;;;;;;5068793;28;20029;-68
2021/06/26 02:58:40;;;;;;;17.58;11.27;;;14.40;97.20;;;;;;5067475;28;20033;-68
2021/06/26 03:01:07;;;;;;;21.20;11.02;;;14.40;97.20;;;;;;5069132;28;20520;-68
2021/06/26 03:03:32;;;;;;;14.02;10.45;;;14.40;97.30;;;;;;5069741;28;20082;-68
2021/06/26 03:05:58;;;;;;;30.33;11.15;;;14.40;97.30;;;;;;5062594;28;20120;-68
2021/06/26 03:08:24;;;;;;;16.15;10.98;;;14.50;97.30;;;;;;5059852;28;20037;-69
2021/06/26 03:10:50;;;;;;;19.80;10.85;;;14.50;97.30;;;;;;5066645;28;20107;-69
2021/06/26 03:13:15;;;;;;;24.83;12.35;;;14.50;97.30;;;;;;5065256;28;20102;-71
2021/06/26 03:15:42;;;;;;;31.83;11.65;;;14.40;97.20;;;;;;5067827;28;20473;-68
2021/06/26 03:18:08;;;;;;;29.90;11.40;;;14.40;97.20;;;;;;5070644;28;20029;-68
2021/06/26 03:20:33;;;;;;;22.95;10.82;;;14.50;97.20;;;;;;5067530;28;20033;-69
2021/06/26 03:22:59;;;;;;;22.85;10.82;;;14.40;97.30;;;;;;5066612;28;20290;-68
2021/06/26 03:25:24;;;;;;;20.63;11.50;;;14.40;97.30;;;;;;5065046;28;20393;-68
2021/06/26 03:27:50;;;;;;;18.90;12.32;;;14.40;97.30;;;;;;5068015;28;20066;-67
2021/06/26 03:30:16;;;;;;;19.20;12.38;;;14.40;97.30;;;;;;5068075;28;20044;-68
2021/06/26 03:32:42;;;;;;;24.98;11.88;;;14.50;97.40;;;;;;5066403;28;20687;-68
2021/06/26 03:35:08;;;;;;;46.83;10.93;;;14.50;97.40;;;;;;5069630;28;20158;-69
2021/06/26 03:37:34;;;;;;;23.10;10.80;;;14.50;97.30;;;;;;5067031;28;20064;-68
2021/06/26 03:39:59;;;;;;;39.85;11.85;;;14.50;97.30;;;;;;5069609;28;20488;-68
2021/06/26 03:42:25;;;;;;;19.48;11.75;;;14.50;97.30;;;;;;5067138;28;20096;-67
2021/06/26 03:44:51;;;;;;;15.20;10.80;;;14.60;97.40;;;;;;5062741;28;20044;-68
2021/06/26 03:47:16;;;;;;;20.70;11.18;;;14.60;97.40;;;;;;5064312;28;20029;-69
2021/06/26 03:49:42;;;;;;;28.33;12.13;;;14.60;97.30;;;;;;5070263;28;20043;-67
2021/06/26 03:52:08;;;;;;;21.25;11.02;;;14.60;97.40;;;;;;5064061;28;20033;-68
2021/06/26 03:54:34;;;;;;;14.50;11.35;;;14.60;97.30;;;;;;5068012;28;20032;-67
2021/06/26 03:57:00;;;;;;;17.25;11.57;;;14.70;97.30;;;;;;5059512;28;20029;-68
2021/06/26 03:59:26;;;;;;;19.30;12.23;;;14.70;97.30;;;;;;5069549;28;20047;-68
2021/06/26 04:01:52;;;;;;;30.48;11.70;;;14.70;97.30;;;;;;5064254;28;20449;-68
2021/06/26 04:04:19;;;;;;;19.33;12.70;;;14.70;97.30;;;;;;5065815;28;20056;-69
2021/06/26 04:06:45;;;;;;;19.08;12.07;;;14.80;97.20;;;;;;5068123;28;20031;-69
2021/06/26 04:09:11;;;;;;;22.80;12.95;;;14.80;97.30;;;;;;5069819;28;20103;-69
2021/06/26 04:11:37;;;;;;;40.33;13.30;;;14.80;97.30;;;;;;5063736;28;20093;-67
2021/06/26 04:14:02;;;;;;;17.27;12.18;;;14.90;97.30;;;;;;5063403;28;20057;-67
2021/06/26 04:16:28;;;;;;;20.00;12.43;;;14.90;97.20;;;;;;5066855;28;20016;-70
2021/06/26 04:18:53;;;;;;;21.55;13.32;;;14.90;97.20;;;;;;5066877;28;20032;-70
2021/06/26 04:21:19;;;;;;;21.70;13.52;;;14.90;97.30;;;;;;5067814;28;20485;-67
2021/06/26 04:23:45;;;;;;;23.45;14.32;;;14.90;97.30;;;;;;5064896;28;20202;-67
2021/06/26 04:26:10;;;;;;;25.95;14.10;;;14.90;97.40;;;;;;5067817;28;20031;-68
2021/06/26 04:28:36;;;;;;;20.75;14.57;;;14.90;97.40;;;;;;5066390;28;20071;-70
2021/06/26 04:31:01;;;;;;;20.95;14.57;;;15.00;97.40;;;;;;5062970;28;20166;-68
2021/06/26 04:33:28;;;;;;;19.92;13.93;;;15.00;97.40;;;;;;5062358;28;20099;-67
2021/06/26 04:35:54;;;;;;;22.13;13.95;;;15.00;97.40;;;;;;5069116;28;20017;-68
2021/06/26 04:38:22;;;;;;;17.95;13.25;;;15.10;97.40;;;;;;5068252;28;20560;-68
2021/06/26 04:40:52;;;;;;;18.30;13.07;;;15.10;97.40;;;;;;5069927;22;20064;-67
2021/06/26 04:43:19;;;;;;;20.05;13.10;;;15.20;97.50;;;;;;5077192;28;20027;-70
2021/06/26 04:45:46;;;;;;;18.75;12.73;;;15.20;97.40;;;;;;5086990;28;20031;-70
2021/06/26 04:48:12;;;;;;;20.98;14.18;;;15.40;97.40;;;;;;5087367;28;20046;-68
2021/06/26 04:50:38;;;;;;;23.55;13.90;;;15.40;97.20;;;;;;5070166;28;20407;-70
2021/06/26 04:53:03;;;;;;;20.40;14.45;;;15.40;97.20;;;;;;5084437;28;20036;-68
2021/06/26 04:55:29;;;;;;;18.48;13.07;;;15.40;97.20;;;;;;5086856;28;20024;-68
2021/06/26 04:57:55;;;;;;;19.92;15.20;;;15.50;97.20;;;;;;5088091;28;20020;-71
2021/06/26 05:00:21;;;;;;;20.92;14.85;;;15.60;97.30;;;;;;5086576;28;20372;-67
2021/06/26 05:02:46;;;;;;;17.98;12.80;;;15.60;97.20;;;;;;5076470;28;20031;-68
2021/06/26 05:05:12;;;;;;;21.08;13.55;;;15.60;97.10;;;;;;5074995;28;20032;-68
2021/06/26 05:07:38;;;;;;;21.58;14.57;;;15.70;97.10;;;;;;5088647;28;20122;-68
2021/06/26 05:10:04;;;;;;;17.58;12.98;;;15.70;97.10;;;;;;5085316;28;20028;-68
2021/06/26 05:12:30;;;;;;;15.48;12.43;;;15.70;97.00;;;;;;5086489;28;20032;-69
2021/06/26 05:14:55;;;;;;;16.55;13.25;;;15.80;97.30;;;;;;5085463;28;20032;-72
2021/06/26 05:17:21;;;;;;;16.10;12.15;;;15.80;97.10;;;;;;5088361;28;20020;-73
2021/06/26 05:19:46;;;;;;;17.52;13.23;;;15.90;97.00;;;;;;5087508;28;20024;-68
2021/06/26 05:22:13;;;;;;;15.82;12.45;;;15.90;97.00;;;;;;5088053;28;20426;-68
2021/06/26 05:24:39;;;;;;;17.33;13.18;;;16.00;97.00;;;;;;5086737;28;20070;-68
2021/06/26 05:27:05;;;;;;;19.95;13.55;;;16.00;96.90;;;;;;5079633;28;20036;-68
2021/06/26 05:29:31;;;;;;;21.20;15.18;;;16.00;96.90;;;;;;5088537;28;20506;-68
2021/06/26 05:31:57;;;;;;;23.85;14.77;;;16.00;96.90;;;;;;5078364;28;20039;-68
2021/06/26 05:34:23;;;;;;;22.23;14.73;;;16.00;96.90;;;;;;5090025;28;20028;-68
2021/06/26 05:36:48;;;;;;;19.13;14.18;;;16.00;96.80;;;;;;5088585;28;20020;-69
2021/06/26 05:39:14;;;;;;;20.90;14.63;;;16.00;96.80;;;;;;5078275;28;20098;-69
2021/06/26 05:41:39;;;;;;;20.42;14.35;;;16.10;96.80;;;;;;5092715;28;20108;-67
2021/06/26 05:44:05;;;;;;;19.60;13.75;;;16.10;96.90;;;;;;5090766;28;20063;-69
2021/06/26 05:46:31;;;;;;;18.55;14.15;;;16.10;96.90;;;;;;5080874;28;20471;-68
2021/06/26 05:48:56;;;;;;;21.00;14.80;;;16.20;96.90;;;;;;5088325;28;20040;-68
2021/06/26 05:51:22;;;;;;;24.25;15.93;;;16.20;96.90;;;;;;5086767;28;20103;-72
2021/06/26 05:53:49;;;;;;;24.58;15.52;;;16.20;96.80;;;;;;5092235;28;20383;-68
2021/06/26 05:56:14;;;;;;;25.88;16.55;;;16.20;96.80;;;;;;5090776;28;20548;-70
2021/06/26 05:58:40;;;;;;;25.45;17.67;;;16.30;96.80;;;;;;5087861;28;20032;-67
2021/06/26 06:01:10;;;;;;;29.25;19.20;;;16.30;96.70;;;;;;5080653;28;20024;-67
2021/06/26 06:03:35;;;;;;;31.45;18.23;;;16.40;96.70;;;;;;5090807;28;20503;-68
2021/06/26 06:06:01;;;;;;;27.80;18.20;;;16.50;96.70;;;;;;5086498;28;20033;-70
2021/06/26 06:08:27;;;;;;;29.92;18.38;;;16.60;96.70;;;;;;5089712;28;20494;-70
2021/06/26 06:10:52;;;;;;;29.95;19.02;;;16.70;96.70;;;;;;5095643;28;20028;-68
2021/06/26 06:13:21;;;;;;;28.13;18.73;;;16.80;96.60;;;;;;5087014;28;20024;-70
2021/06/26 06:15:48;;;;;;;26.63;18.25;;;16.80;96.60;;;;;;5091563;28;20017;-72
2021/06/26 06:18:15;;;;;;;25.88;17.38;;;16.90;96.50;;;;;;5084359;28;20030;-69
2021/06/26 06:20:41;;;;;;;24.30;16.48;;;16.90;96.40;;;;;;5092252;28;20028;-67
2021/06/26 06:23:07;;;;;;;24.17;16.98;;;17.00;96.60;;;;;;5089012;28;20024;-72
2021/06/26 06:25:34;;;;;;;24.33;16.75;;;17.10;96.40;;;;;;5070980;28;20135;-69
2021/06/26 06:28:02;;;;;;;25.58;18.02;;;17.20;96.30;;;;;;5089023;28;20761;-68
2021/06/26 06:30:28;;;;;;;28.73;18.67;;;17.30;96.30;;;;;;5090525;28;20039;-71
2021/06/26 06:32:53;;;;;;;32.47;19.85;;;17.50;96.30;;;;;;5086570;28;20020;-77
2021/06/26 06:35:19;;;;;;;28.63;18.95;;;17.60;96.30;;;;;;5087476;28;20503;-77
2021/06/26 06:37:45;;;;;;;27.80;19.35;;;17.80;96.20;;;;;;5091385;28;20027;-77
2021/06/26 06:40:13;;;;;;;29.20;19.75;;;18.00;96.10;;;;;;5089934;28;20483;-76
2021/06/26 06:42:40;;;;;;;29.98;19.55;;;18.20;96.00;;;;;;5068122;28;20035;-77
2021/06/26 06:45:06;;;;;;;29.13;20.08;;;18.40;95.80;;;;;;5065165;28;20081;-79
2021/06/26 06:47:32;;;;;;;26.05;19.25;;;18.60;95.60;;;;;;5091395;28;20035;-78
2021/06/26 06:49:57;;;;;;;28.73;19.33;;;18.80;95.40;;;;;;5085586;28;20111;-67
2021/06/26 06:52:23;;;;;;;25.27;18.40;;;19.10;95.10;;;;;;5091347;28;20020;-67
2021/06/26 06:54:49;;;;;;;24.77;18.63;;;19.30;94.90;;;;;;5091957;28;20021;-68
2021/06/26 06:57:14;;;;;;;28.08;20.02;;;19.50;94.60;;;;;;5073884;28;20060;-68
2021/06/26 06:59:40;;;;;;;25.80;18.20;;;19.70;94.40;;;;;;5091548;28;20099;-71
2021/06/26 07:02:05;;;;;;;24.75;18.38;;;20.00;94.20;;;;;;5080626;28;20108;-67
2021/06/26 07:04:31;;;;;;;22.70;17.50;;;20.20;93.70;;;;;;5079705;28;20028;-67
2021/06/26 07:06:57;;;;;;;25.27;18.25;;;20.50;93.40;;;;;;5092217;28;20089;-68
2021/06/26 07:09:23;;;;;;;26.63;17.92;;;20.70;93.10;;;;;;5091930;28;20099;-69
2021/06/26 07:11:49;;;;;;;24.67;17.92;;;20.90;92.80;;;;;;5074325;28;20488;-67
2021/06/26 07:14:15;;;;;;;24.60;16.58;;;21.20;92.50;;;;;;5092063;28;20024;-70
2021/06/26 07:16:40;;;;;;;23.40;16.88;;;21.40;92.00;;;;;;5089955;28;20028;-67
2021/06/26 07:19:06;;;;;;;20.90;15.73;;;21.60;91.60;;;;;;5086918;28;20067;-67
2021/06/26 07:21:32;;;;;;;23.02;16.55;;;21.90;91.30;;;;;;5092589;28;20480;-68
2021/06/26 07:23:58;;;;;;;20.08;16.45;;;22.10;90.90;;;;;;5091632;28;20031;-68
2021/06/26 07:26:24;;;;;;;21.92;14.88;;;22.40;90.60;;;;;;5088124;28;20024;-67
2021/06/26 07:28:49;;;;;;;23.75;16.10;;;22.60;90.20;;;;;;5090292;28;20024;-68
2021/06/26 07:31:15;;;;;;;75.95;51.80;;;22.90;89.40;;;;;;5092185;28;20060;-70
2021/06/26 07:33:41;;;;;;;20.88;15.65;;;23.00;88.70;;;;;;5090300;28;20035;-67
2021/06/26 07:36:06;;;;;;;21.05;15.55;;;22.90;88.50;;;;;;5089573;28;20028;-67
2021/06/26 07:38:32;;;;;;;18.85;15.55;;;23.00;87.80;;;;;;5091887;28;20035;-68
2021/06/26 07:40:58;;;;;;;21.17;14.23;;;23.20;87.20;;;;;;5090641;28;20392;-68
2021/06/26 07:43:25;;;;;;;19.13;14.10;;;23.50;86.80;;;;;;5091548;28;20028;-68
2021/06/26 07:45:51;;;;;;;17.75;13.95;;;23.70;85.50;;;;;;5090782;28;20356;-67
2021/06/26 07:48:16;;;;;;;18.38;14.23;;;23.60;84.90;;;;;;5091557;28;20028;-68
2021/06/26 07:50:42;;;;;;;16.38;13.30;;;23.90;83.80;;;;;;5084478;28;20123;-67
2021/06/26 07:53:08;;;;;;;15.73;13.38;;;24.00;83.90;;;;;;5091414;28;20039;-69
2021/06/26 07:55:34;;;;;;;22.02;14.23;;;24.00;83.10;;;;;;5089321;28;20024;-67
2021/06/26 07:57:59;;;;;;;20.63;14.05;;;23.90;82.60;;;;;;5091458;28;20016;-69
2021/06/26 08:00:25;;;;;;;17.38;14.07;;;23.80;82.40;;;;;;5091023;28;20028;-68
2021/06/26 08:02:51;;;;;;;16.73;13.20;;;24.00;82.20;;;;;;5091127;28;20032;-67
2021/06/26 08:05:16;;;;;;;16.27;13.60;;;24.40;82.10;;;;;;5089757;28;20074;-68
2021/06/26 08:07:42;;;;;;;17.27;13.25;;;24.70;81.00;;;;;;5089623;28;20090;-70
2021/06/26 08:10:08;;;;;;;19.77;14.27;;;25.00;80.10;;;;;;5091321;28;20026;-67
2021/06/26 08:12:33;;;;;;;17.90;14.55;;;25.00;79.70;;;;;;5090140;28;20016;-67
2021/06/26 08:15:01;;;;;;;18.00;13.52;;;24.90;79.60;;;;;;5082303;28;20031;-67
2021/06/26 08:17:27;;;;;;;18.63;13.50;;;25.20;78.90;;;;;;5079413;28;20024;-68
2021/06/26 08:19:52;;;;;;;16.05;12.88;;;25.00;79.30;;;;;;5091359;28;20438;-67
2021/06/26 08:22:18;;;;;;;15.75;12.65;;;24.70;78.90;;;;;;5090435;28;20099;-67
2021/06/26 08:24:44;;;;;;;17.50;12.27;;;24.70;79.10;;;;;;5072337;28;20031;-67
2021/06/26 08:27:09;;;;;;;15.50;10.70;;;25.00;77.90;;;;;;5083095;28;20024;-67
2021/06/26 08:29:35;;;;;;;13.40;11.95;;;25.40;77.60;;;;;;5087550;28;20066;-67
2021/06/26 08:32:00;;;;;;;15.80;10.35;;;25.80;76.70;;;;;;5087045;28;20052;-70
2021/06/26 08:34:27;;;;;;;16.10;10.88;;;26.20;75.50;;;;;;5082773;28;20054;-75
2021/06/26 08:36:52;;;;;;;12.43;9.02;;;26.60;74.20;;;;;;5089929;28;20028;-76
2021/06/26 08:39:21;;;;;;;10.93;9.68;;;26.80;73.90;;;;;;5089415;28;20058;-75
2021/06/26 08:41:50;;;;;;;12.70;10.15;;;26.50;73.90;;;;;;5083354;28;20036;-76
2021/06/26 08:44:18;;;;;;;12.68;10.13;;;26.20;73.60;;;;;;5090044;28;20111;-76
2021/06/26 08:46:46;;;;;;;14.20;9.85;;;26.90;72.00;;;;;;5088996;28;20035;-76
2021/06/26 08:49:12;;;;;;;11.93;8.90;;;27.50;70.20;;;;;;5089007;28;20028;-76
2021/06/26 08:51:38;;;;;;;10.15;9.07;;;28.10;69.00;;;;;;5080949;28;20024;-76
2021/06/26 08:54:10;;;;;;;13.00;9.73;;;28.60;66.80;;;;;;5090582;28;20063;-76
2021/06/26 08:56:36;;;;;;;13.25;10.63;;;29.10;64.80;;;;;;5067285;28;20093;-76
2021/06/26 08:59:01;;;;;;;16.65;9.95;;;29.40;64.50;;;;;;5072055;28;20479;-76
2021/06/26 09:01:27;;;;;;;11.63;9.13;;;29.70;63.30;;;;;;5063840;28;20138;-76
2021/06/26 09:04:04;;;;;;;10.98;8.52;;;30.10;62.50;;;;;;5089862;28;20042;-76
2021/06/26 09:06:33;;;;;;;13.20;8.23;;;29.80;62.00;;;;;;5069172;28;20025;-76
2021/06/26 09:08:58;;;;;;;11.48;8.70;;;29.10;62.90;;;;;;5094640;28;20034;-77
2021/06/26 09:11:25;;;;;;;11.90;9.48;;;29.40;61.70;;;;;;5092586;28;20017;-77
2021/06/26 09:13:51;;;;;;;13.15;9.50;;;28.50;63.00;;;;;;5095197;28;20016;-75
2021/06/26 09:16:17;;;;;;;11.10;9.93;;;27.90;64.40;;;;;;5081301;28;20070;-76
2021/06/26 09:18:50;;;;;;;11.60;8.90;;;28.30;63.60;;;;;;5092360;28;20387;-76
2021/06/26 09:21:30;;;;;;;10.00;9.00;;;29.20;61.50;;;;;;5095845;28;20060;-75
2021/06/26 09:24:00;;;;;;;10.52;8.35;;;29.90;60.00;;;;;;5078235;28;20032;-76
2021/06/26 09:26:26;;;;;;;13.63;9.65;;;30.60;59.20;;;;;;5088621;28;20016;-76
2021/06/26 09:28:52;;;;;;;10.43;9.32;;;30.10;59.90;;;;;;5073540;28;20032;-76
2021/06/26 09:31:20;;;;;;;12.45;9.57;;;29.40;61.90;;;;;;5094134;28;20040;-73
2021/06/26 09:33:56;;;;;;;10.95;8.93;;;28.60;62.90;;;;;;5076389;28;20027;-74
2021/06/26 09:36:25;;;;;;;10.85;8.68;;;27.90;63.80;;;;;;5090971;28;20032;-75
2021/06/26 09:38:56;;;;;;;11.10;9.80;;;27.30;65.30;;;;;;5090804;28;20016;-75
2021/06/26 09:41:22;;;;;;;14.20;11.05;;;26.90;65.80;;;;;;5084360;28;20032;-75
2021/06/26 09:43:48;;;;;;;14.20;10.65;;;26.50;66.50;;;;;;5095389;28;20036;-76
2021/06/26 09:46:18;;;;;;;13.88;9.48;;;26.10;67.10;;;;;;5096643;28;20115;-77
2021/06/26 09:48:52;;;;;;;11.27;8.27;;;25.80;66.90;;;;;;5095670;28;20028;-72
2021/06/26 09:51:26;;;;;;;12.07;10.18;;;26.30;66.70;;;;;;5094715;28;20054;-77
2021/06/26 09:54:05;;;;;;;14.63;9.27;;;26.60;66.90;;;;;;5075955;28;21574;-76
2021/06/26 09:56:45;;;;;;;13.00;9.55;;;27.50;66.10;;;;;;5092876;28;20027;-76
2021/06/26 09:59:12;;;;;;;9.85;8.23;;;27.80;65.40;;;;;;5076268;28;20476;-76
2021/06/26 10:01:42;;;;;;;11.88;9.27;;;27.30;66.50;;;;;;5087176;28;20036;-77
2021/06/26 10:04:15;;;;;;;11.45;9.10;;;26.90;66.80;;;;;;5095539;28;20024;-77
2021/06/26 10:06:45;;;;;;;8.57;7.20;;;26.50;66.90;;;;;;5090910;28;20517;-75
2021/06/26 10:09:13;;;;;;;8.20;7.25;;;26.30;67.20;;;;;;5082986;28;20107;-75
2021/06/26 10:11:39;;;;;;;9.05;7.95;;;26.20;66.90;;;;;;5090140;28;20020;-75
2021/06/26 10:14:08;;;;;;;10.90;8.30;;;26.40;66.70;;;;;;5074470;28;20430;-75
2021/06/26 10:16:35;;;;;;;10.60;8.45;;;26.20;67.00;;;;;;5092562;28;20054;-75
2021/06/26 10:19:03;;;;;;;9.82;8.05;;;25.90;66.20;;;;;;5089840;28;20020;-75
2021/06/26 10:21:31;;;;;;;9.70;8.70;;;25.80;66.70;;;;;;5105236;28;20031;-75
2021/06/26 10:24:00;;;;;;;9.57;7.65;;;25.60;67.10;;;;;;5064510;28;20714;-74
2021/06/26 10:26:27;;;;;;;11.60;7.05;;;25.60;66.50;;;;;;5091915;28;20020;-75
2021/06/26 10:29:02;;;;;;;8.38;6.97;;;25.80;67.20;;;;;;5075014;28;20442;-75
2021/06/26 10:31:39;;;;;;;7.60;6.90;;;26.10;67.30;;;;;;5092902;28;20049;-75
2021/06/26 10:34:16;;;;;;;7.85;6.50;;;26.30;66.70;;;;;;5093154;28;20028;-74
2021/06/26 10:36:50;;;;;;;7.32;6.60;;;26.70;67.40;;;;;;5092653;28;20024;-75
2021/06/26 10:39:21;;;;;;;9.20;8.00;;;26.80;67.50;;;;;;5075072;28;20074;-69
2021/06/26 10:41:56;;;;;;;9.55;7.68;;;26.70;66.50;;;;;;5101580;22;20070;-67
2021/06/26 10:44:22;;;;;;;14.38;11.32;;;26.50;65.90;;;;;;5061079;28;20032;-67
2021/06/26 10:46:47;;;;;;;11.40;7.97;;;26.30;66.20;;;;;;5055857;28;20017;-68
2021/06/26 10:49:13;;;;;;;11.88;6.97;;;26.30;66.20;;;;;;5068218;28;20025;-68
2021/06/26 10:51:41;;;;;;;8.13;7.32;;;26.40;67.50;;;;;;5056047;28;20523;-68
2021/06/26 10:54:12;;;;;;;7.20;6.50;;;26.40;67.50;;;;;;5057943;28;20051;-68
2021/06/26 10:56:38;;;;;;;7.82;7.05;;;26.40;66.60;;;;;;5061090;28;20146;-68
2021/06/26 10:59:15;;;;;;;9.60;6.93;;;26.40;66.40;;;;;;5072081;28;20050;-68
2021/06/26 11:01:58;;;;;;;7.60;6.80;;;26.40;65.50;;;;;;5072240;28;20021;-68
2021/06/26 11:04:25;;;;;;;8.40;6.47;;;26.40;65.90;;;;;;5072397;28;20027;-67
2021/06/26 11:07:02;;;;;;;7.07;6.30;;;26.50;65.60;;;;;;5071652;28;20063;-68
2021/06/26 11:09:38;;;;;;;7.78;6.45;;;26.50;66.20;;;;;;5053077;28;20116;-68
2021/06/26 11:12:12;;;;;;;7.40;6.70;;;26.70;65.40;;;;;;5063332;28;20112;-67
2021/06/26 11:14:50;;;;;;;8.13;6.32;;;26.80;65.30;;;;;;5045064;28;20020;-68
2021/06/26 11:17:17;;;;;;;7.93;7.13;;;26.80;64.80;;;;;;5070264;28;20471;-68
2021/06/26 11:19:42;;;;;;;8.43;6.40;;;26.80;64.60;;;;;;5071075;28;20020;-68
2021/06/26 11:22:08;;;;;;;7.25;5.75;;;26.80;65.20;;;;;;5052323;28;20387;-67
2021/06/26 11:24:39;;;;;;;7.43;5.78;;;26.80;65.10;;;;;;5066942;28;20499;-67
2021/06/26 11:27:06;;;;;;;6.38;5.78;;;27.00;65.20;;;;;;5071041;28;20063;-67
2021/06/26 11:29:44;;;;;;;7.45;6.00;;;27.00;65.00;;;;;;5070662;28;20087;-67
2021/06/26 11:32:28;;;;;;;6.35;5.75;;;27.00;64.40;;;;;;5069857;28;20032;-67
2021/06/26 11:35:06;;;;;;;7.28;6.35;;;27.00;64.80;;;;;;5041379;28;20086;-67
2021/06/26 11:37:35;;;;;;;10.90;6.85;;;26.80;64.00;;;;;;5070352;28;20012;-67
2021/06/26 11:40:28;;;;;;;7.40;6.30;;;26.60;64.10;;;;;;5068925;28;20032;-67
2021/06/26 11:43:01;;;;;;;8.23;6.30;;;26.60;64.60;;;;;;5052039;28;20523;-67
2021/06/26 11:45:47;;;;;;;7.00;5.80;;;26.60;64.10;;;;;;5057768;28;20035;-67
2021/06/26 11:48:15;;;;;;;8.02;6.10;;;26.50;64.00;;;;;;5070328;28;20040;-67
2021/06/26 11:51:02;;;;;;;6.80;6.10;;;26.60;64.30;;;;;;5070827;28;20020;-67
2021/06/26 11:53:28;;;;;;;6.68;6.07;;;26.60;64.60;;;;;;5070041;28;20046;-67
2021/06/26 11:55:59;;;;;;;6.63;6.00;;;26.50;64.40;;;;;;5067407;28;20025;-67
2021/06/26 11:58:44;;;;;;;7.40;6.63;;;26.50;64.60;;;;;;5069847;28;20478;-67
2021/06/26 12:01:10;;;;;;;6.72;5.95;;;26.60;64.50;;;;;;5070848;28;20021;-67
2021/06/26 12:03:36;;;;;;;8.38;5.80;;;26.60;64.00;;;;;;5070259;28;20024;-67
2021/06/26 12:06:13;;;;;;;6.70;5.97;;;26.50;63.90;;;;;;5069844;28;20546;-67
2021/06/26 12:08:47;;;;;;;11.20;5.95;;;26.50;64.40;;;;;;5069773;28;20020;-67
2021/06/26 12:11:14;;;;;;;7.70;5.80;;;26.60;64.60;;;;;;5068595;28;20103;-67
2021/06/26 12:13:44;;;;;;;6.72;5.95;;;26.60;64.50;;;;;;5065982;28;20020;-67
2021/06/26 12:16:14;;;;;;;6.22;5.72;;;26.60;64.80;;;;;;5068114;28;20107;-67
2021/06/26 12:18:47;;;;;;;7.43;5.57;;;26.80;64.80;;;;;;5055574;28;20052;-67
2021/06/26 12:21:12;;;;;;;5.75;5.25;;;26.80;64.30;;;;;;5062678;28;20031;-67
2021/06/26 12:23:46;;;;;;;6.63;5.60;;;26.80;65.00;;;;;;5035128;28;20029;-67
2021/06/26 12:26:30;;;;;;;6.03;5.43;;;26.80;64.30;;;;;;5062211;28;20046;-67
2021/06/26 12:28:56;;;;;;;5.80;5.18;;;26.80;64.10;;;;;;5069579;28;20056;-69
2021/06/26 12:31:22;;;;;;;6.70;4.95;;;26.80;64.30;;;;;;5068812;28;20068;-68